Time;durP1;ratioP1;P1;durP2;ratioP2;P2;SDS_P1;SDS_P2;PMS_P1;PMS_P2;Temp;Humidity;BMP_temperature;BMP_pressure;BME280_temperature;BME280_humidity;BME280_pressure;Samples;Min_cycle;Max_cycle;Signal;HPM_P1;HPM_P2
2021/12/18 06:04:13;;;;;;;;;;;;;;;1.96;76.40;98425.34;4229176;27;10421;-77
2021/12/18 06:06:15;;;;;;;;;;;;;;;1.96;76.33;98425.34;4228052;28;6216;-79
2021/12/18 06:08:16;;;;;;;;;;;;;;;2.11;76.41;98432.16;4230047;28;5627;-76
2021/12/18 06:10:19;;;;;;;;;;;;;;;2.13;76.44;98432.91;4210798;28;5734;-75
2021/12/18 06:12:21;;;;;;;;;;;;;;;2.18;76.08;98424.78;4192651;28;5717;-77
2021/12/18 06:14:22;;;;;;;;;;;;;;;2.25;76.09;98426.88;4226707;28;5930;-75
2021/12/18 06:16:24;;;;;;;;;;;;;;;2.10;76.34;98422.66;4227123;28;6273;-74
2021/12/18 06:18:26;;;;;;;;;;;;;;;2.29;76.01;98425.75;4209874;28;5690;-76
2021/12/18 06:20:28;;;;;;;;;;;;;;;2.34;75.53;98421.03;4227454;28;5612;-79
2021/12/18 06:22:30;;;;;;;;;;;;;;;2.26;75.54;98418.09;4209324;28;5686;-77
2021/12/18 06:24:32;;;;;;;;;;;;;;;2.18;75.89;98415.19;4227789;28;5854;-76
2021/12/18 06:26:33;;;;;;;;;;;;;;;2.24;75.74;98413.94;4227012;28;5616;-75
2021/12/18 06:28:35;;;;;;;;;;;;;;;2.00;75.90;98412.00;4226808;28;5747;-77
2021/12/18 06:30:56;;;;;;;;;;;;;;;2.15;76.09;98409.31;4225682;28;5619;-78
2021/12/18 06:32:58;;;;;;;;;;;;;;;2.14;75.58;98407.66;4228897;28;5732;-77
2021/12/18 06:34:59;;;;;;;;;;;;;;;2.15;76.02;98404.09;4232601;28;5609;-72
2021/12/18 06:37:08;;;;;;;;;;;;;;;2.29;75.57;98412.69;4207956;28;5822;-74
2021/12/18 06:39:09;;;;;;;;;;;;;;;2.36;75.56;98407.91;4207664;28;5547;-75
2021/12/18 06:41:11;;;;;;;;;;;;;;;2.33;75.06;98416.78;4224979;28;5621;-76
2021/12/18 06:43:13;;;;;;;;;;;;;;;2.29;75.54;98417.91;4230423;28;5617;-77
2021/12/18 06:45:14;;;;;;;;;;;;;;;2.26;75.36;98428.53;4214698;28;5551;-78
2021/12/18 06:47:16;;;;;;;;;;;;;;;2.03;76.11;98421.38;4228718;28;5814;-77
2021/12/18 06:49:18;;;;;;;;;;;;;;;2.20;75.75;98408.09;4225636;28;6576;-75
2021/12/18 06:51:20;;;;;;;;;;;;;;;2.31;75.70;98418.66;4225723;28;5734;-75
2021/12/18 06:53:21;;;;;;;;;;;;;;;2.37;75.41;98419.16;4227756;27;5624;-76
2021/12/18 06:55:24;;;;;;;;;;;;;;;1.95;76.00;98418.47;4200924;28;5567;-76
2021/12/18 06:57:26;;;;;;;;;;;;;;;1.72;77.19;98412.97;4179508;28;5963;-76
2021/12/18 06:59:28;;;;;;;;;;;;;;;1.96;76.50;98420.13;4213289;28;5794;-78
2021/12/18 07:01:30;;;;;;;;;;;;;;;1.92;76.31;98419.47;4215119;28;5631;-78
2021/12/18 07:03:34;;;;;;;;;;;;;;;1.95;76.58;98423.69;4196947;28;5558;-76
2021/12/18 07:05:35;;;;;;;;;;;;;;;2.10;76.11;98420.06;4187646;28;5571;-78
2021/12/18 07:07:37;;;;;;;;;;;;;;;2.02;76.00;98415.34;4204787;28;5623;-75
2021/12/18 07:09:39;;;;;;;;;;;;;;;2.22;75.51;98421.88;4203865;28;5786;-79
2021/12/18 07:11:41;;;;;;;;;;;;;;;2.34;75.48;98420.22;4204393;28;5740;-79
2021/12/18 07:13:45;;;;;;;;;;;;;;;2.32;75.00;98425.53;4204583;28;5782;-81
2021/12/18 07:15:46;;;;;;;;;;;;;;;2.27;75.52;98430.25;4187555;28;5474;-75
2021/12/18 07:17:48;;;;;;;;;;;;;;;2.26;75.23;98433.75;4204046;28;7720;-80
2021/12/18 07:19:49;;;;;;;;;;;;;;;2.21;75.34;98419.34;4204699;28;7685;-79
2021/12/18 07:21:51;;;;;;;;;;;;;;;2.30;75.32;98423.97;4205754;28;6307;-84
2021/12/18 07:23:53;;;;;;;;;;;;;;;2.08;74.88;98421.09;4187756;28;5542;-76
2021/12/18 07:25:55;;;;;;;;;;;;;;;1.67;76.38;98433.25;4204068;28;5642;-77
2021/12/18 07:27:56;;;;;;;;;;;;;;;1.97;76.03;98432.25;4205027;28;5780;-75
2021/12/18 07:29:58;;;;;;;;;;;;;;;2.16;75.39;98424.91;4201413;28;5757;-75
2021/12/18 07:32:00;;;;;;;;;;;;;;;2.14;75.38;98431.13;4192241;28;5637;-76
2021/12/18 07:34:22;;;;;;;;;;;;;;;2.20;75.33;98428.97;4197473;28;5769;-76
2021/12/18 07:36:24;;;;;;;;;;;;;;;1.94;75.22;98430.69;4196149;28;5776;-76
2021/12/18 07:38:25;;;;;;;;;;;;;;;1.97;75.31;98427.84;4182805;28;5582;-76
2021/12/18 07:40:29;;;;;;;;;;;;;;;1.84;75.89;98426.16;4179270;28;5875;-77
2021/12/18 07:42:31;;;;;;;;;;;;;;;1.99;75.47;98431.19;4228264;22;5637;-76
2021/12/18 07:44:33;;;;;;;;;;;;;;;1.93;75.23;98433.38;4200606;28;5660;-76
2021/12/18 07:46:38;;;;;;;;;;;;;;;2.06;75.21;98442.09;4235032;28;5661;-76
2021/12/18 07:48:39;;;;;;;;;;;;;;;2.14;75.07;98434.56;4230271;28;5593;-76
2021/12/18 07:50:41;;;;;;;;;;;;;;;2.17;74.60;98433.56;4213744;28;5939;-76
2021/12/18 07:52:42;;;;;;;;;;;;;;;2.24;74.81;98429.59;4183178;28;5843;-76
2021/12/18 07:54:45;;;;;;;;;;;;;;;2.32;74.38;98429.94;4201518;28;5745;-76
2021/12/18 07:56:46;;;;;;;;;;;;;;;2.24;74.38;98433.03;4199700;28;5636;-76
2021/12/18 07:58:49;;;;;;;;;;;;;;;2.28;74.18;98426.69;4213676;28;5624;-76
2021/12/18 08:00:51;;;;;;;;;;;;;;;2.23;74.54;98433.97;4182052;28;6391;-75
2021/12/18 08:02:52;;;;;;;;;;;;;;;1.91;75.17;98435.22;4217992;28;5620;-75
2021/12/18 08:04:54;;;;;;;;;;;;;;;1.99;75.33;98435.56;4216801;28;5632;-75
2021/12/18 08:06:55;;;;;;;;;;;;;;;2.09;74.90;98441.88;4216542;28;5619;-75
2021/12/18 08:08:57;;;;;;;;;;;;;;;2.28;74.66;98436.28;4217360;28;6461;-75
2021/12/18 08:10:58;;;;;;;;;;;;;;;2.25;74.70;98439.91;4219250;28;6956;-76
2021/12/18 08:13:00;;;;;;;;;;;;;;;2.26;74.72;98436.38;4217655;28;7697;-76
2021/12/18 08:15:03;;;;;;;;;;;;;;;2.32;74.37;98430.75;4218136;28;5652;-76
2021/12/18 08:17:05;;;;;;;;;;;;;;;2.37;74.53;98429.59;4215136;28;5790;-77
2021/12/18 08:19:06;;;;;;;;;;;;;;;2.37;74.58;98429.59;4218065;28;6212;-76
2021/12/18 08:21:08;;;;;;;;;;;;;;;2.33;74.45;98428.97;4218595;28;5723;-76
2021/12/18 08:23:10;;;;;;;;;;;;;;;2.32;74.72;98428.16;4214729;28;5629;-76
2021/12/18 08:25:11;;;;;;;;;;;;;;;2.42;74.50;98433.59;4218644;28;6324;-76
2021/12/18 08:27:15;;;;;;;;;;;;;;;2.54;74.44;98431.94;4218452;28;5698;-76
2021/12/18 08:29:17;;;;;;;;;;;;;;;2.52;73.73;98439.06;4217080;28;5736;-76
2021/12/18 08:31:18;;;;;;;;;;;;;;;2.48;74.11;98434.94;4200127;28;5627;-76
2021/12/18 08:33:20;;;;;;;;;;;;;;;2.52;74.09;98432.06;4217974;28;5620;-76
2021/12/18 08:35:22;;;;;;;;;;;;;;;2.55;74.04;98431.84;4213000;28;5624;-76
2021/12/18 08:37:24;;;;;;;;;;;;;;;2.61;73.57;98433.22;4212904;28;5905;-76
2021/12/18 08:39:26;;;;;;;;;;;;;;;2.56;73.75;98430.91;4216721;28;5842;-75
2021/12/18 08:41:33;;;;;;;;;;;;;;;2.56;73.73;98432.66;4209309;28;5624;-75
2021/12/18 08:43:35;;;;;;;;;;;;;;;2.60;73.92;98436.72;4216827;28;5671;-73
2021/12/18 08:45:39;;;;;;;;;;;;;;;2.75;73.46;98433.09;4217318;28;5609;-76
2021/12/18 08:47:41;;;;;;;;;;;;;;;2.43;74.08;98430.06;4213896;28;5616;-75
2021/12/18 08:49:43;;;;;;;;;;;;;;;2.63;73.35;98431.31;4216085;28;6337;-75
2021/12/18 08:51:47;;;;;;;;;;;;;;;2.68;73.27;98413.56;4191032;28;5670;-76
2021/12/18 08:53:49;;;;;;;;;;;;;;;2.73;73.20;98416.72;4211272;28;5735;-76
2021/12/18 08:55:50;;;;;;;;;;;;;;;2.77;73.27;98419.94;4184139;28;5654;-76
2021/12/18 08:57:52;;;;;;;;;;;;;;;2.72;73.01;98415.03;4217480;28;5620;-77
